Skip to main content.
Our real time weather data display below is updated continuously via our 24/7 live data feed.
 TIME   TEMPERATURE   WINDSPEED   DIRECTION   HUMIDITY   BAROMETER   RAINFALL 
5:55 17.0°C (62.6°F) 9.3 kmh (5.8 mph) SE 82% 1020.0hPa (30.12 inHg) 0.0mm (0.00 in.)
4:55 19.0°C (66.2 °F) 13.0 kmh (8.1 mph) SE 72% 1020.0hPa (30.12 inHg) 0.0mm (0.00 in.)
3:54 19.0°C (66.2 °F) 9.3 kmh (5.8 mph) N 72% 1020.0hPa (30.12 inHg) 0.0mm (0.00 in.)
2:54 19.0°C (66.2 °F) 7.4 kmh (4.6 mph) N 72% 1020.0hPa (30.12 inHg) 0.0mm (0.00 in.)
1:54 19.0°C (66.2 °F) 9.3 kmh (5.8 mph) N 72% 1021.0hPa (30.15 inHg) 0.0mm (0.00 in.)
12:54 20.0°C (68.0 °F) 5.6 kmh (3.5 mph) N 68% 1021.0hPa (30.15 inHg) 0.0mm (0.00 in.)
11:54 20.0°C (68.0 °F) 11.1 kmh (6.9 mph) N 68% 1022.0hPa (30.18 inHg) 0.0mm (0.00 in.)
10:54 20.0°C (68.0 °F) 11.1 kmh (6.9 mph) N 64% 1022.0hPa (30.18 inHg) 0.0mm (0.00 in.)
9:54 19.0°C (66.2 °F) 7.4 kmh (4.6 mph) N 68% 1022.0hPa (30.18 inHg) 0.0mm (0.00 in.)
8:49 17.0°C (62.6 °F) 7.4 kmh (4.6 mph) N 88% 1022.0hPa (30.18 inHg) 0.0mm (0.00 in.)
7:39 13.0°C (55.4 °F) 3.7 kmh (2.3 mph) N 100% 1022.0hPa (30.18 inHg) 0.0mm (0.00 in.)
6:39 13.0°C (55.4 °F) 0.0 kmh (0.0 mph) N 93% 1022.0hPa (30.18 inHg) 0.0mm (0.00 in.)
5:39 13.0°C (55.4 °F) 1.9 kmh (1.2 mph) N 100% 1021.0hPa (30.15 inHg) 0.0mm (0.00 in.)
4:39 13.0°C (55.4 °F) 1.9 kmh (1.2 mph) N 93% 1022.0hPa (30.18 inHg) 0.0mm (0.00 in.)
3:39 13.0°C (55.4 °F) 1.9 kmh (1.2 mph) N 100% 1022.0hPa (30.18 inHg) 0.0mm (0.00 in.)
2:39 13.0°C (55.4 °F) 0.0 kmh (0.0 mph) N 93% 1023.0hPa (30.21 inHg) 0.0mm (0.00 in.)
1:39 14.0°C (57.2 °F) 1.9 kmh (1.2 mph) N 93% 1023.0hPa (30.21 inHg) 0.0mm (0.00 in.)
12:39 14.0°C (57.2 °F) 1.9 kmh (1.2 mph) N 87% 1023.0hPa (30.21 inHg) 0.0mm (0.00 in.)
11:39 14.0°C (57.2 °F) 5.6 kmh (3.5 mph) N 93% 1023.0hPa (30.21 inHg) 0.0mm (0.00 in.)
10:39 14.0°C (57.2 °F) 3.7 kmh (2.3 mph) N 93% 1023.0hPa (30.21 inHg) 0.0mm (0.00 in.)
9:39 15.0°C (59.0 °F) 5.6 kmh (3.5 mph) N 87% 1023.0hPa (30.21 inHg) 0.0mm (0.00 in.)
8:39 15.0°C (59.0 °F) 3.7 kmh (2.3 mph) N 87% 1023.0hPa (30.21 inHg) 0.0mm (0.00 in.)
7:39 16.0°C (60.8 °F) 3.7 kmh (2.3 mph) N 82% 1023.0hPa (30.21 inHg) 0.0mm (0.00 in.)
6:39 17.0°C (62.6 °F) 3.7 kmh (2.3 mph) N 72% 1023.0hPa (30.21 inHg) 0.0mm (0.00 in.)